sensor_id;sensor_type;location;lat;lon;timestamp;temperature;humidity
1680;DHT22;838;51.794;12.258;2024-02-26T00:02:24;2.20;36.50
1680;DHT22;838;51.794;12.258;2024-02-26T00:04:50;2.00;42.40
1680;DHT22;838;51.794;12.258;2024-02-26T00:07:16;1.90;47.40
1680;DHT22;838;51.794;12.258;2024-02-26T00:09:42;2.00;51.70
1680;DHT22;838;51.794;12.258;2024-02-26T00:12:07;2.10;49.70
1680;DHT22;838;51.794;12.258;2024-02-26T00:14:33;2.50;51.30
1680;DHT22;838;51.794;12.258;2024-02-26T00:17:00;2.80;44.50
1680;DHT22;838;51.794;12.258;2024-02-26T00:19:26;3.10;42.90
1680;DHT22;838;51.794;12.258;2024-02-26T00:21:51;3.30;39.80
1680;DHT22;838;51.794;12.258;2024-02-26T00:24:19;3.40;37.90
1680;DHT22;838;51.794;12.258;2024-02-26T00:26:45;3.60;33.80
1680;DHT22;838;51.794;12.258;2024-02-26T00:29:10;3.40;36.70
1680;DHT22;838;51.794;12.258;2024-02-26T00:31:37;3.50;37.60
1680;DHT22;838;51.794;12.258;2024-02-26T00:34:03;3.60;37.20
1680;DHT22;838;51.794;12.258;2024-02-26T00:36:29;3.80;33.40
1680;DHT22;838;51.794;12.258;2024-02-26T00:38:55;4.00;29.20
1680;DHT22;838;51.794;12.258;2024-02-26T00:41:21;3.80;26.20
1680;DHT22;838;51.794;12.258;2024-02-26T00:43:47;3.40;27.60
1680;DHT22;838;51.794;12.258;2024-02-26T00:46:13;3.10;31.00
1680;DHT22;838;51.794;12.258;2024-02-26T00:48:38;2.80;34.30
1680;DHT22;838;51.794;12.258;2024-02-26T00:51:05;2.50;38.60
1680;DHT22;838;51.794;12.258;2024-02-26T00:53:31;2.30;43.80
1680;DHT22;838;51.794;12.258;2024-02-26T00:55:57;2.30;47.80
1680;DHT22;838;51.794;12.258;2024-02-26T00:58:27;2.50;49.10
1680;DHT22;838;51.794;12.258;2024-02-26T01:00:52;2.70;49.20
1680;DHT22;838;51.794;12.258;2024-02-26T01:03:19;3.00;47.90
1680;DHT22;838;51.794;12.258;2024-02-26T01:05:45;3.30;43.00
1680;DHT22;838;51.794;12.258;2024-02-26T01:08:10;3.20;42.20
1680;DHT22;838;51.794;12.258;2024-02-26T01:10:36;3.30;40.40
1680;DHT22;838;51.794;12.258;2024-02-26T01:13:02;3.40;39.80
1680;DHT22;838;51.794;12.258;2024-02-26T01:15:28;3.40;39.60
1680;DHT22;838;51.794;12.258;2024-02-26T01:17:54;3.40;41.70
1680;DHT22;838;51.794;12.258;2024-02-26T01:20:20;3.50;38.70
1680;DHT22;838;51.794;12.258;2024-02-26T01:22:46;3.70;38.60
1680;DHT22;838;51.794;12.258;2024-02-26T01:25:12;3.70;36.50
1680;DHT22;838;51.794;12.258;2024-02-26T01:27:38;3.70;38.30
1680;DHT22;838;51.794;12.258;2024-02-26T01:30:05;3.60;38.20
1680;DHT22;838;51.794;12.258;2024-02-26T01:32:31;3.50;38.70
1680;DHT22;838;51.794;12.258;2024-02-26T01:34:57;3.40;42.10
1680;DHT22;838;51.794;12.258;2024-02-26T01:37:23;3.30;41.30
1680;DHT22;838;51.794;12.258;2024-02-26T01:39:49;3.30;43.70
1680;DHT22;838;51.794;12.258;2024-02-26T01:42:14;3.30;43.50
1680;DHT22;838;51.794;12.258;2024-02-26T01:44:40;3.30;43.50
1680;DHT22;838;51.794;12.258;2024-02-26T01:47:08;3.50;43.50
1680;DHT22;838;51.794;12.258;2024-02-26T01:49:36;3.70;41.20
1680;DHT22;838;51.794;12.258;2024-02-26T01:52:03;3.90;36.90
1680;DHT22;838;51.794;12.258;2024-02-26T01:54:30;3.80;31.70
1680;DHT22;838;51.794;12.258;2024-02-26T01:56:56;3.80;32.20
1680;DHT22;838;51.794;12.258;2024-02-26T01:59:23;3.60;33.20
1680;DHT22;838;51.794;12.258;2024-02-26T02:01:55;3.40;35.40
1680;DHT22;838;51.794;12.258;2024-02-26T02:04:23;3.40;34.50
1680;DHT22;838;51.794;12.258;2024-02-26T02:06:49;3.50;34.90
1680;DHT22;838;51.794;12.258;2024-02-26T02:09:15;3.60;33.00
1680;DHT22;838;51.794;12.258;2024-02-26T02:11:41;3.70;33.30
1680;DHT22;838;51.794;12.258;2024-02-26T02:14:07;3.80;31.90
1680;DHT22;838;51.794;12.258;2024-02-26T02:16:33;3.80;32.20
1680;DHT22;838;51.794;12.258;2024-02-26T02:18:59;3.50;34.90
1680;DHT22;838;51.794;12.258;2024-02-26T02:21:24;3.50;35.70
1680;DHT22;838;51.794;12.258;2024-02-26T02:23:50;3.30;41.70
1680;DHT22;838;51.794;12.258;2024-02-26T02:26:16;3.40;41.00
1680;DHT22;838;51.794;12.258;2024-02-26T02:28:43;3.40;41.90
1680;DHT22;838;51.794;12.258;2024-02-26T02:31:10;3.50;42.10
1680;DHT22;838;51.794;12.258;2024-02-26T02:33:36;3.50;40.00
1680;DHT22;838;51.794;12.258;2024-02-26T02:36:02;3.70;39.10
1680;DHT22;838;51.794;12.258;2024-02-26T02:38:28;3.60;38.20
1680;DHT22;838;51.794;12.258;2024-02-26T02:40:56;3.50;40.20
1680;DHT22;838;51.794;12.258;2024-02-26T02:43:21;3.50;38.50
1680;DHT22;838;51.794;12.258;2024-02-26T02:45:47;3.40;40.70
1680;DHT22;838;51.794;12.258;2024-02-26T02:48:13;3.40;40.60
1680;DHT22;838;51.794;12.258;2024-02-26T02:50:39;3.30;41.10
1680;DHT22;838;51.794;12.258;2024-02-26T02:53:05;3.10;43.90
1680;DHT22;838;51.794;12.258;2024-02-26T02:55:30;3.10;46.40
1680;DHT22;838;51.794;12.258;2024-02-26T02:57:56;3.10;46.30
1680;DHT22;838;51.794;12.258;2024-02-26T03:00:22;3.00;46.90
1680;DHT22;838;51.794;12.258;2024-02-26T03:02:50;3.00;48.90
1680;DHT22;838;51.794;12.258;2024-02-26T03:05:16;3.10;48.50
1680;DHT22;838;51.794;12.258;2024-02-26T03:07:42;3.30;48.60
1680;DHT22;838;51.794;12.258;2024-02-26T03:10:08;3.40;45.50
1680;DHT22;838;51.794;12.258;2024-02-26T03:12:34;3.40;46.90
1680;DHT22;838;51.794;12.258;2024-02-26T03:15:01;3.40;45.20
1680;DHT22;838;51.794;12.258;2024-02-26T03:17:30;3.40;46.50
1680;DHT22;838;51.794;12.258;2024-02-26T03:19:55;3.60;44.60
1680;DHT22;838;51.794;12.258;2024-02-26T03:22:21;3.50;41.90
1680;DHT22;838;51.794;12.258;2024-02-26T03:24:47;3.50;45.00
1680;DHT22;838;51.794;12.258;2024-02-26T03:27:13;3.30;43.50
1680;DHT22;838;51.794;12.258;2024-02-26T03:29:40;3.20;45.20
1680;DHT22;838;51.794;12.258;2024-02-26T03:32:06;3.20;46.60
1680;DHT22;838;51.794;12.258;2024-02-26T03:34:32;3.00;48.00
1680;DHT22;838;51.794;12.258;2024-02-26T03:37:01;3.00;48.20
1680;DHT22;838;51.794;12.258;2024-02-26T03:39:27;3.20;48.50
1680;DHT22;838;51.794;12.258;2024-02-26T03:41:53;3.20;47.90
1680;DHT22;838;51.794;12.258;2024-02-26T03:44:20;3.30;49.20
1680;DHT22;838;51.794;12.258;2024-02-26T03:46:45;3.40;47.20
1680;DHT22;838;51.794;12.258;2024-02-26T03:49:11;3.50;47.20
1680;DHT22;838;51.794;12.258;2024-02-26T03:51:37;3.50;44.40
1680;DHT22;838;51.794;12.258;2024-02-26T03:54:03;3.60;43.70
1680;DHT22;838;51.794;12.258;2024-02-26T03:56:29;3.50;45.70
1680;DHT22;838;51.794;12.258;2024-02-26T03:58:55;3.70;44.50
1680;DHT22;838;51.794;12.258;2024-02-26T04:01:20;3.90;42.80
1680;DHT22;838;51.794;12.258;2024-02-26T04:03:46;4.00;40.50
1680;DHT22;838;51.794;12.258;2024-02-26T04:06:12;4.10;38.60
1680;DHT22;838;51.794;12.258;2024-02-26T04:08:43;4.30;37.40
1680;DHT22;838;51.794;12.258;2024-02-26T04:11:09;4.20;36.70
1680;DHT22;838;51.794;12.258;2024-02-26T04:13:35;4.20;32.50
1680;DHT22;838;51.794;12.258;2024-02-26T04:16:04;3.70;33.10
1680;DHT22;838;51.794;12.258;2024-02-26T04:18:29;3.30;40.50
1680;DHT22;838;51.794;12.258;2024-02-26T04:20:55;3.00;45.50
1680;DHT22;838;51.794;12.258;2024-02-26T04:23:22;2.90;48.30
1680;DHT22;838;51.794;12.258;2024-02-26T04:25:48;2.90;48.20
1680;DHT22;838;51.794;12.258;2024-02-26T04:28:13;2.90;48.80
1680;DHT22;838;51.794;12.258;2024-02-26T04:30:40;2.80;48.80
1680;DHT22;838;51.794;12.258;2024-02-26T04:33:06;2.70;51.30
1680;DHT22;838;51.794;12.258;2024-02-26T04:35:31;2.80;53.40
1680;DHT22;838;51.794;12.258;2024-02-26T04:37:57;3.00;51.70
1680;DHT22;838;51.794;12.258;2024-02-26T04:40:23;3.00;50.60
1680;DHT22;838;51.794;12.258;2024-02-26T04:42:49;3.10;48.80
1680;DHT22;838;51.794;12.258;2024-02-26T04:45:15;3.10;49.90
1680;DHT22;838;51.794;12.258;2024-02-26T04:47:41;3.20;46.80
1680;DHT22;838;51.794;12.258;2024-02-26T04:50:07;3.10;47.40
1680;DHT22;838;51.794;12.258;2024-02-26T04:52:33;2.70;47.00
1680;DHT22;838;51.794;12.258;2024-02-26T04:54:58;3.10;49.80
1680;DHT22;838;51.794;12.258;2024-02-26T04:57:26;3.10;47.10
1680;DHT22;838;51.794;12.258;2024-02-26T04:59:52;3.10;50.20
1680;DHT22;838;51.794;12.258;2024-02-26T05:02:17;3.10;50.50
1680;DHT22;838;51.794;12.258;2024-02-26T05:04:43;3.10;51.80
1680;DHT22;838;51.794;12.258;2024-02-26T05:07:09;3.10;51.80
1680;DHT22;838;51.794;12.258;2024-02-26T05:09:35;3.10;50.70
1680;DHT22;838;51.794;12.258;2024-02-26T05:12:00;3.10;50.70
1680;DHT22;838;51.794;12.258;2024-02-26T05:14:27;3.20;51.40
1680;DHT22;838;51.794;12.258;2024-02-26T05:16:53;3.30;51.20
1680;DHT22;838;51.794;12.258;2024-02-26T05:19:18;3.20;49.00
1680;DHT22;838;51.794;12.258;2024-02-26T05:21:44;3.30;51.30
1680;DHT22;838;51.794;12.258;2024-02-26T05:24:10;3.40;47.90
1680;DHT22;838;51.794;12.258;2024-02-26T05:26:36;3.50;50.00
1680;DHT22;838;51.794;12.258;2024-02-26T05:29:01;3.60;47.60
1680;DHT22;838;51.794;12.258;2024-02-26T05:31:27;3.70;46.00
1680;DHT22;838;51.794;12.258;2024-02-26T05:33:54;3.70;47.10
1680;DHT22;838;51.794;12.258;2024-02-26T05:36:23;3.80;46.80
1680;DHT22;838;51.794;12.258;2024-02-26T05:38:50;3.90;43.10
1680;DHT22;838;51.794;12.258;2024-02-26T05:41:16;3.80;41.30
1680;DHT22;838;51.794;12.258;2024-02-26T05:43:45;3.90;44.00
1680;DHT22;838;51.794;12.258;2024-02-26T05:46:11;3.90;39.90
1680;DHT22;838;51.794;12.258;2024-02-26T05:48:37;3.80;39.80
1680;DHT22;838;51.794;12.258;2024-02-26T05:51:03;3.90;41.00
1680;DHT22;838;51.794;12.258;2024-02-26T05:53:29;4.00;40.00
1680;DHT22;838;51.794;12.258;2024-02-26T05:55:55;4.10;37.50
1680;DHT22;838;51.794;12.258;2024-02-26T05:58:21;4.00;38.80
1680;DHT22;838;51.794;12.258;2024-02-26T06:00:47;4.00;38.30
1680;DHT22;838;51.794;12.258;2024-02-26T06:03:13;3.80;38.80
1680;DHT22;838;51.794;12.258;2024-02-26T06:05:38;3.80;40.50
1680;DHT22;838;51.794;12.258;2024-02-26T06:08:04;3.90;39.70
1680;DHT22;838;51.794;12.258;2024-02-26T06:10:30;3.80;40.30
1680;DHT22;838;51.794;12.258;2024-02-26T06:12:56;3.60;43.70
1680;DHT22;838;51.794;12.258;2024-02-26T06:15:22;3.60;46.90
1680;DHT22;838;51.794;12.258;2024-02-26T06:17:48;3.50;48.20
1680;DHT22;838;51.794;12.258;2024-02-26T06:20:14;3.60;49.80
1680;DHT22;838;51.794;12.258;2024-02-26T06:22:40;3.80;47.80
1680;DHT22;838;51.794;12.258;2024-02-26T06:25:07;3.90;47.30
1680;DHT22;838;51.794;12.258;2024-02-26T06:27:33;4.00;45.90
1680;DHT22;838;51.794;12.258;2024-02-26T06:29:59;4.00;46.40
1680;DHT22;838;51.794;12.258;2024-02-26T06:32:25;4.10;47.40
1680;DHT22;838;51.794;12.258;2024-02-26T06:34:53;4.20;48.00
1680;DHT22;838;51.794;12.258;2024-02-26T06:37:19;4.40;45.10
1680;DHT22;838;51.794;12.258;2024-02-26T06:39:44;4.50;43.30
1680;DHT22;838;51.794;12.258;2024-02-26T06:42:10;4.60;41.70
1680;DHT22;838;51.794;12.258;2024-02-26T06:44:36;4.50;38.70
1680;DHT22;838;51.794;12.258;2024-02-26T06:47:01;4.70;40.30
1680;DHT22;838;51.794;12.258;2024-02-26T06:49:28;4.80;39.90
1680;DHT22;838;51.794;12.258;2024-02-26T06:51:54;4.80;38.00
1680;DHT22;838;51.794;12.258;2024-02-26T06:54:20;4.70;37.10
1680;DHT22;838;51.794;12.258;2024-02-26T06:56:46;4.70;35.80
1680;DHT22;838;51.794;12.258;2024-02-26T06:59:12;4.70;38.60
1680;DHT22;838;51.794;12.258;2024-02-26T07:01:41;4.80;38.50
1680;DHT22;838;51.794;12.258;2024-02-26T07:04:07;5.00;36.10
1680;DHT22;838;51.794;12.258;2024-02-26T07:06:32;4.90;38.40
1680;DHT22;838;51.794;12.258;2024-02-26T07:08:58;5.10;34.70
1680;DHT22;838;51.794;12.258;2024-02-26T07:11:24;5.20;36.90
1680;DHT22;838;51.794;12.258;2024-02-26T07:13:49;5.30;32.70
1680;DHT22;838;51.794;12.258;2024-02-26T07:16:15;5.40;32.30
1680;DHT22;838;51.794;12.258;2024-02-26T07:18:41;5.30;32.30
1680;DHT22;838;51.794;12.258;2024-02-26T07:21:09;5.40;31.70
1680;DHT22;838;51.794;12.258;2024-02-26T07:23:34;5.30;31.50
1680;DHT22;838;51.794;12.258;2024-02-26T07:26:00;5.40;31.40
1680;DHT22;838;51.794;12.258;2024-02-26T07:28:29;5.70;32.60
1680;DHT22;838;51.794;12.258;2024-02-26T07:30:55;5.80;29.70
1680;DHT22;838;51.794;12.258;2024-02-26T07:33:21;5.80;27.80
1680;DHT22;838;51.794;12.258;2024-02-26T07:35:47;5.90;29.30
1680;DHT22;838;51.794;12.258;2024-02-26T07:38:13;6.00;29.00
1680;DHT22;838;51.794;12.258;2024-02-26T07:40:39;6.20;28.20
1680;DHT22;838;51.794;12.258;2024-02-26T07:43:05;6.50;27.90
1680;DHT22;838;51.794;12.258;2024-02-26T07:45:30;6.60;25.20
1680;DHT22;838;51.794;12.258;2024-02-26T07:47:56;7.00;26.50
1680;DHT22;838;51.794;12.258;2024-02-26T07:50:22;7.40;21.60
1680;DHT22;838;51.794;12.258;2024-02-26T07:52:48;7.40;21.60
1680;DHT22;838;51.794;12.258;2024-02-26T07:55:13;7.80;20.60
1680;DHT22;838;51.794;12.258;2024-02-26T07:57:42;7.70;20.00
1680;DHT22;838;51.794;12.258;2024-02-26T08:00:09;8.20;18.30
1680;DHT22;838;51.794;12.258;2024-02-26T08:02:36;8.40;16.50
1680;DHT22;838;51.794;12.258;2024-02-26T08:05:02;8.70;11.80
1680;DHT22;838;51.794;12.258;2024-02-26T08:07:28;8.80;8.90
1680;DHT22;838;51.794;12.258;2024-02-26T08:09:54;8.40;11.60
1680;DHT22;838;51.794;12.258;2024-02-26T08:12:20;8.30;13.20
1680;DHT22;838;51.794;12.258;2024-02-26T08:14:46;8.20;14.30
1680;DHT22;838;51.794;12.258;2024-02-26T08:17:11;8.20;14.20
1680;DHT22;838;51.794;12.258;2024-02-26T08:19:37;8.30;12.80
1680;DHT22;838;51.794;12.258;2024-02-26T08:22:03;8.40;14.40
1680;DHT22;838;51.794;12.258;2024-02-26T08:24:29;8.60;13.70
1680;DHT22;838;51.794;12.258;2024-02-26T08:26:54;8.50;16.50
1680;DHT22;838;51.794;12.258;2024-02-26T08:29:20;8.80;11.60
1680;DHT22;838;51.794;12.258;2024-02-26T08:31:46;8.90;11.50
1680;DHT22;838;51.794;12.258;2024-02-26T08:34:12;8.80;11.70
1680;DHT22;838;51.794;12.258;2024-02-26T08:36:37;8.90;12.10
1680;DHT22;838;51.794;12.258;2024-02-26T08:39:03;8.60;11.40
1680;DHT22;838;51.794;12.258;2024-02-26T08:41:29;8.70;15.20
1680;DHT22;838;51.794;12.258;2024-02-26T08:43:55;8.90;12.30
1680;DHT22;838;51.794;12.258;2024-02-26T08:46:21;9.00;13.70
1680;DHT22;838;51.794;12.258;2024-02-26T08:48:46;9.30;10.50
1680;DHT22;838;51.794;12.258;2024-02-26T08:51:12;9.50;11.70
1680;DHT22;838;51.794;12.258;2024-02-26T08:53:38;9.80;4.40
1680;DHT22;838;51.794;12.258;2024-02-26T08:56:05;10.10;6.10
1680;DHT22;838;51.794;12.258;2024-02-26T08:58:31;10.40;1.80
1680;DHT22;838;51.794;12.258;2024-02-26T09:00:57;10.40;1.00
1680;DHT22;838;51.794;12.258;2024-02-26T09:03:23;10.40;1.00
1680;DHT22;838;51.794;12.258;2024-02-26T09:05:49;10.30;1.00
1680;DHT22;838;51.794;12.258;2024-02-26T09:08:15;10.20;2.10
1680;DHT22;838;51.794;12.258;2024-02-26T09:10:41;10.30;3.90
1680;DHT22;838;51.794;12.258;2024-02-26T09:13:07;10.30;1.60
1680;DHT22;838;51.794;12.258;2024-02-26T09:15:33;10.40;1.20
1680;DHT22;838;51.794;12.258;2024-02-26T09:17:58;10.30;1.50
1680;DHT22;838;51.794;12.258;2024-02-26T09:20:24;10.40;1.00
1680;DHT22;838;51.794;12.258;2024-02-26T09:22:50;10.60;1.00
1680;DHT22;838;51.794;12.258;2024-02-26T09:25:17;10.70;1.00
1680;DHT22;838;51.794;12.258;2024-02-26T09:27:43;10.60;2.40
1680;DHT22;838;51.794;12.258;2024-02-26T09:30:10;10.80;1.00
1680;DHT22;838;51.794;12.258;2024-02-26T09:32:37;11.00;1.00
1680;DHT22;838;51.794;12.258;2024-02-26T09:35:03;11.50;1.00
1680;DHT22;838;51.794;12.258;2024-02-26T09:37:29;11.60;1.00
1680;DHT22;838;51.794;12.258;2024-02-26T09:39:54;11.40;1.00
1680;DHT22;838;51.794;12.258;2024-02-26T09:42:20;11.30;1.00
1680;DHT22;838;51.794;12.258;2024-02-26T09:44:49;10.90;1.00
1680;DHT22;838;51.794;12.258;2024-02-26T09:47:17;10.90;1.00
1680;DHT22;838;51.794;12.258;2024-02-26T09:49:47;10.90;1.10
1680;DHT22;838;51.794;12.258;2024-02-26T09:52:15;11.00;1.00
1680;DHT22;838;51.794;12.258;2024-02-26T09:54:42;10.80;1.00
1680;DHT22;838;51.794;12.258;2024-02-26T09:57:13;10.80;1.00
1680;DHT22;838;51.794;12.258;2024-02-26T09:59:42;10.60;2.30
1680;DHT22;838;51.794;12.258;2024-02-26T10:02:15;10.60;4.70
1680;DHT22;838;51.794;12.258;2024-02-26T10:04:41;10.90;3.30
1680;DHT22;838;51.794;12.258;2024-02-26T10:07:11;10.60;2.40
1680;DHT22;838;51.794;12.258;2024-02-26T10:09:37;10.30;6.10
1680;DHT22;838;51.794;12.258;2024-02-26T10:12:08;10.10;7.00
1680;DHT22;838;51.794;12.258;2024-02-26T10:14:35;10.20;6.50
1680;DHT22;838;51.794;12.258;2024-02-26T10:17:02;10.50;6.40
1680;DHT22;838;51.794;12.258;2024-02-26T10:19:29;11.00;6.70
1680;DHT22;838;51.794;12.258;2024-02-26T10:22:00;11.20;1.00
1680;DHT22;838;51.794;12.258;2024-02-26T10:24:27;11.00;2.00
1680;DHT22;838;51.794;12.258;2024-02-26T10:26:54;11.30;1.00
1680;DHT22;838;51.794;12.258;2024-02-26T10:29:21;11.50;1.00
1680;DHT22;838;51.794;12.258;2024-02-26T10:31:47;11.50;1.00
1680;DHT22;838;51.794;12.258;2024-02-26T10:34:16;11.60;1.00
1680;DHT22;838;51.794;12.258;2024-02-26T10:36:42;11.80;1.00
1680;DHT22;838;51.794;12.258;2024-02-26T10:39:09;12.00;1.00
1680;DHT22;838;51.794;12.258;2024-02-26T10:41:37;12.20;1.00
1680;DHT22;838;51.794;12.258;2024-02-26T10:44:03;12.40;1.00
1680;DHT22;838;51.794;12.258;2024-02-26T10:46:29;12.50;1.00
1680;DHT22;838;51.794;12.258;2024-02-26T10:48:56;12.50;1.00
1680;DHT22;838;51.794;12.258;2024-02-26T10:51:30;12.50;1.00
1680;DHT22;838;51.794;12.258;2024-02-26T10:53:59;12.40;1.00
1680;DHT22;838;51.794;12.258;2024-02-26T10:56:29;12.50;1.00
1680;DHT22;838;51.794;12.258;2024-02-26T10:58:59;12.70;1.00
1680;DHT22;838;51.794;12.258;2024-02-26T11:01:26;12.70;1.00
1680;DHT22;838;51.794;12.258;2024-02-26T11:03:53;12.80;1.00
1680;DHT22;838;51.794;12.258;2024-02-26T11:06:20;12.80;1.00
1680;DHT22;838;51.794;12.258;2024-02-26T11:08:53;12.90;1.00
1680;DHT22;838;51.794;12.258;2024-02-26T11:11:20;12.80;1.00
1680;DHT22;838;51.794;12.258;2024-02-26T11:13:48;12.60;1.00
1680;DHT22;838;51.794;12.258;2024-02-26T11:16:21;12.70;1.00
1680;DHT22;838;51.794;12.258;2024-02-26T11:18:52;12.60;1.00
1680;DHT22;838;51.794;12.258;2024-02-26T11:21:21;12.30;1.00
1680;DHT22;838;51.794;12.258;2024-02-26T11:24:05;12.00;1.00
1680;DHT22;838;51.794;12.258;2024-02-26T11:26:37;12.00;1.00
1680;DHT22;838;51.794;12.258;2024-02-26T11:29:04;12.00;1.00
1680;DHT22;838;51.794;12.258;2024-02-26T11:31:33;12.00;1.00
1680;DHT22;838;51.794;12.258;2024-02-26T11:33:59;12.20;1.00
1680;DHT22;838;51.794;12.258;2024-02-26T11:36:25;12.30;1.00
1680;DHT22;838;51.794;12.258;2024-02-26T11:38:51;12.70;1.00
1680;DHT22;838;51.794;12.258;2024-02-26T11:41:18;12.70;1.00
1680;DHT22;838;51.794;12.258;2024-02-26T11:43:59;13.00;1.00
1680;DHT22;838;51.794;12.258;2024-02-26T11:46:32;13.00;1.00
1680;DHT22;838;51.794;12.258;2024-02-26T11:49:03;12.90;1.00
1680;DHT22;838;51.794;12.258;2024-02-26T11:51:42;12.60;1.00
1680;DHT22;838;51.794;12.258;2024-02-26T11:54:08;12.70;1.00
1680;DHT22;838;51.794;12.258;2024-02-26T11:56:34;12.60;1.00
1680;DHT22;838;51.794;12.258;2024-02-26T11:59:03;12.40;1.00
1680;DHT22;838;51.794;12.258;2024-02-26T12:01:50;12.60;1.00
1680;DHT22;838;51.794;12.258;2024-02-26T12:04:25;12.50;1.00
1680;DHT22;838;51.794;12.258;2024-02-26T12:06:55;12.40;1.00
1680;DHT22;838;51.794;12.258;2024-02-26T12:09:35;12.50;1.00
1680;DHT22;838;51.794;12.258;2024-02-26T12:12:08;12.70;1.00
1680;DHT22;838;51.794;12.258;2024-02-26T12:14:51;12.80;1.00
1680;DHT22;838;51.794;12.258;2024-02-26T12:17:25;13.20;1.00
1680;DHT22;838;51.794;12.258;2024-02-26T12:19:51;13.30;1.00
1680;DHT22;838;51.794;12.258;2024-02-26T12:22:19;13.00;1.00
1680;DHT22;838;51.794;12.258;2024-02-26T12:24:45;12.90;1.00
1680;DHT22;838;51.794;12.258;2024-02-26T12:27:11;13.00;1.00
1680;DHT22;838;51.794;12.258;2024-02-26T12:29:37;12.90;1.00
1680;DHT22;838;51.794;12.258;2024-02-26T12:32:04;12.60;1.00
1680;DHT22;838;51.794;12.258;2024-02-26T12:34:31;12.60;1.00
1680;DHT22;838;51.794;12.258;2024-02-26T12:36:57;12.50;1.00
1680;DHT22;838;51.794;12.258;2024-02-26T12:39:23;12.50;1.00
1680;DHT22;838;51.794;12.258;2024-02-26T12:41:49;12.70;1.00
1680;DHT22;838;51.794;12.258;2024-02-26T12:44:16;12.50;1.00
1680;DHT22;838;51.794;12.258;2024-02-26T12:46:42;12.40;1.00
1680;DHT22;838;51.794;12.258;2024-02-26T12:49:08;12.50;1.00
1680;DHT22;838;51.794;12.258;2024-02-26T12:51:34;12.40;1.00
1680;DHT22;838;51.794;12.258;2024-02-26T12:54:00;12.30;1.00
1680;DHT22;838;51.794;12.258;2024-02-26T12:56:27;12.30;1.00
1680;DHT22;838;51.794;12.258;2024-02-26T12:58:53;12.30;1.00
1680;DHT22;838;51.794;12.258;2024-02-26T13:01:22;12.60;1.00
1680;DHT22;838;51.794;12.258;2024-02-26T13:03:49;12.80;1.00
1680;DHT22;838;51.794;12.258;2024-02-26T13:06:15;13.00;1.00
1680;DHT22;838;51.794;12.258;2024-02-26T13:08:42;13.10;1.00
1680;DHT22;838;51.794;12.258;2024-02-26T13:11:08;13.30;1.00
1680;DHT22;838;51.794;12.258;2024-02-26T13:13:35;13.70;1.00
1680;DHT22;838;51.794;12.258;2024-02-26T13:16:27;13.80;1.00
1680;DHT22;838;51.794;12.258;2024-02-26T13:18:53;13.50;1.00
1680;DHT22;838;51.794;12.258;2024-02-26T13:21:19;13.20;1.00
1680;DHT22;838;51.794;12.258;2024-02-26T13:23:48;13.30;1.00
1680;DHT22;838;51.794;12.258;2024-02-26T13:26:15;13.20;1.00
1680;DHT22;838;51.794;12.258;2024-02-26T13:28:41;12.90;1.00
1680;DHT22;838;51.794;12.258;2024-02-26T13:31:08;12.80;1.00
1680;DHT22;838;51.794;12.258;2024-02-26T13:33:34;13.00;1.00
1680;DHT22;838;51.794;12.258;2024-02-26T13:36:00;12.80;1.00
1680;DHT22;838;51.794;12.258;2024-02-26T13:38:27;12.50;1.00
1680;DHT22;838;51.794;12.258;2024-02-26T13:40:54;12.30;1.00
1680;DHT22;838;51.794;12.258;2024-02-26T13:43:21;12.30;1.00
1680;DHT22;838;51.794;12.258;2024-02-26T13:45:47;12.40;1.00
1680;DHT22;838;51.794;12.258;2024-02-26T13:48:13;12.30;1.00
1680;DHT22;838;51.794;12.258;2024-02-26T13:50:40;12.50;1.00
1680;DHT22;838;51.794;12.258;2024-02-26T13:53:06;12.60;1.00
1680;DHT22;838;51.794;12.258;2024-02-26T13:55:32;12.60;1.00
1680;DHT22;838;51.794;12.258;2024-02-26T13:57:58;12.60;1.00
1680;DHT22;838;51.794;12.258;2024-02-26T14:00:27;12.90;1.00
1680;DHT22;838;51.794;12.258;2024-02-26T14:02:53;12.70;1.00
1680;DHT22;838;51.794;12.258;2024-02-26T14:05:21;12.70;1.00
1680;DHT22;838;51.794;12.258;2024-02-26T14:07:47;12.60;1.00
1680;DHT22;838;51.794;12.258;2024-02-26T14:10:14;12.70;1.00
1680;DHT22;838;51.794;12.258;2024-02-26T14:12:41;12.50;1.00
1680;DHT22;838;51.794;12.258;2024-02-26T14:15:07;12.50;1.00
1680;DHT22;838;51.794;12.258;2024-02-26T14:17:33;12.60;1.00
1680;DHT22;838;51.794;12.258;2024-02-26T14:19:59;12.70;1.00
1680;DHT22;838;51.794;12.258;2024-02-26T14:22:25;13.10;1.00
1680;DHT22;838;51.794;12.258;2024-02-26T14:24:56;13.20;1.00
1680;DHT22;838;51.794;12.258;2024-02-26T14:27:22;13.10;1.00
1680;DHT22;838;51.794;12.258;2024-02-26T14:29:52;13.10;1.00
1680;DHT22;838;51.794;12.258;2024-02-26T14:32:18;13.20;1.00
1680;DHT22;838;51.794;12.258;2024-02-26T14:34:44;13.10;1.00
1680;DHT22;838;51.794;12.258;2024-02-26T14:37:10;13.20;1.00
1680;DHT22;838;51.794;12.258;2024-02-26T14:39:37;12.70;1.00
1680;DHT22;838;51.794;12.258;2024-02-26T14:42:04;12.60;1.00
1680;DHT22;838;51.794;12.258;2024-02-26T14:44:30;12.40;1.00
1680;DHT22;838;51.794;12.258;2024-02-26T14:46:55;12.40;1.00
1680;DHT22;838;51.794;12.258;2024-02-26T14:49:21;12.60;1.00
1680;DHT22;838;51.794;12.258;2024-02-26T14:51:47;12.60;1.00
1680;DHT22;838;51.794;12.258;2024-02-26T14:54:13;12.60;1.00
1680;DHT22;838;51.794;12.258;2024-02-26T14:56:39;12.40;1.00
1680;DHT22;838;51.794;12.258;2024-02-26T14:59:06;12.50;1.00
1680;DHT22;838;51.794;12.258;2024-02-26T15:01:32;12.50;1.00
1680;DHT22;838;51.794;12.258;2024-02-26T15:04:00;12.50;1.00
1680;DHT22;838;51.794;12.258;2024-02-26T15:06:26;12.50;1.00
1680;DHT22;838;51.794;12.258;2024-02-26T15:08:52;12.40;1.00
1680;DHT22;838;51.794;12.258;2024-02-26T15:11:18;12.40;1.00
1680;DHT22;838;51.794;12.258;2024-02-26T15:13:44;12.30;1.00
1680;DHT22;838;51.794;12.258;2024-02-26T15:16:19;12.30;1.00
1680;DHT22;838;51.794;12.258;2024-02-26T15:18:46;12.40;1.00
1680;DHT22;838;51.794;12.258;2024-02-26T15:21:13;12.50;1.00
1680;DHT22;838;51.794;12.258;2024-02-26T15:23:39;12.60;1.00
1680;DHT22;838;51.794;12.258;2024-02-26T15:26:05;12.70;1.00
1680;DHT22;838;51.794;12.258;2024-02-26T15:28:31;12.70;1.00
1680;DHT22;838;51.794;12.258;2024-02-26T15:30:56;12.80;1.00
1680;DHT22;838;51.794;12.258;2024-02-26T15:33:23;12.70;1.00
1680;DHT22;838;51.794;12.258;2024-02-26T15:35:53;12.70;1.00
1680;DHT22;838;51.794;12.258;2024-02-26T15:38:19;12.50;1.00
1680;DHT22;838;51.794;12.258;2024-02-26T15:40:45;12.30;1.00
1680;DHT22;838;51.794;12.258;2024-02-26T15:43:13;12.20;1.00
1680;DHT22;838;51.794;12.258;2024-02-26T15:45:38;12.10;1.00
1680;DHT22;838;51.794;12.258;2024-02-26T15:48:04;12.10;1.00
1680;DHT22;838;51.794;12.258;2024-02-26T15:50:30;12.10;1.00
1680;DHT22;838;51.794;12.258;2024-02-26T15:52:56;12.20;1.00
1680;DHT22;838;51.794;12.258;2024-02-26T15:55:24;12.00;1.00
1680;DHT22;838;51.794;12.258;2024-02-26T15:57:50;12.10;1.00
1680;DHT22;838;51.794;12.258;2024-02-26T16:00:16;12.00;1.00
1680;DHT22;838;51.794;12.258;2024-02-26T16:02:42;12.00;1.00
1680;DHT22;838;51.794;12.258;2024-02-26T16:05:08;12.10;1.00
1680;DHT22;838;51.794;12.258;2024-02-26T16:07:44;11.90;1.00
1680;DHT22;838;51.794;12.258;2024-02-26T16:10:11;11.70;1.00
1680;DHT22;838;51.794;12.258;2024-02-26T16:12:43;11.60;1.00
1680;DHT22;838;51.794;12.258;2024-02-26T16:15:09;11.60;1.00